Indianapolis, IN (46277)

11:29 PM EST on January 31, 2015 (GMT -0500)
North Fountain Square | Change Station
CLOSE
Current Station
Personal Weather Station
Location: Indianapolis, IN
Elevation: 738 ft
Nearby Weather Stations
Active Advisory: Winter Weather Advisory Active Notice: Local Storm Report

Elev 738 ft 39.76 °N, 86.14 °W | Updated 1 second ago

Snow
Snow
32.7 °F
Feels Like 33 °F
N
0.0
Wind Variable Wind from ESE
Gusts 0.0 mph

Today
High -- | Low -- °F
--% Chance of Precip.
Yesterday
High -- | Low -- °F
Precip. -- in
7:53 AM 6:02 PM
Waxing Gibbous, 93% visible
Pressure 30.21 in
Visibility 2.5 miles
Clouds Scattered Clouds 1600 ft
Overcast 2600 ft
Windchill 33 °F
Dew Point 32 °F
Humidity 95%
Rainfall 0.00 in
Snow Depth Not available.
UV 0 out of 12
Pollen .10 out of 12
Air Quality Not available.
Flu Activity Not available.
METAR KIND 010354Z 19005KT 2 1/2SM -RASN BR SCT016 OVC026 M01/M01 A3021

More Conditions Fewer Conditions

Pressure 30.21 in
Visibility 2.5 miles
Clouds Scattered Clouds 1600 ft
Overcast 2600 ft
Windchill 33 °F
Dew Point 32 °F
Humidity 95%
Rainfall 0.00 in
Snow Depth Not available.
UV 0 out of 12
Pollen .10 out of 12
Air Quality Not available.
Flu Activity Not available.
METAR KIND 010354Z 19005KT 2 1/2SM -RASN BR SCT016 OVC026 M01/M01 A3021

More Conditions Fewer Conditions

10-Day Weather Forecast

Almanac

Astronomy

Jan. 31, 2015 Rise Set
Actual Time
Civil Twilight
Nautical Twilight
Astronomical Twilight
Moon
Length of Visible Light
Length of Day
Tomorrow will be .
, % of the Moon is Illuminated

Today's Extremes

State Highs State Lows

Community

WunderPhotos

Upload Photos

1,792,308 photos uploaded!

WunderBlogs® & News

Nearby

Air Quality

  Air Quality AQ Index Pollutant
Not available.

Snow Depth

Station Depth Elevation

Earthquake Activity

City Distance Mag. Time & Date
Minimum magnitude displayed is 2.5.

Coastal Water Temperatures

Place Temperature

Nearby Weather Stations